Time;durP1;ratioP1;P1;durP2;ratioP2;P2;SDS_P1;SDS_P2;PMS_P1;PMS_P2;Temp;Humidity;BMP_temperature;BMP_pressure;BME280_temperature;BME280_humidity;BME280_pressure;Samples;Min_cycle;Max_cycle;Signal;HPM_P1;HPM_P2
2022/05/08 00:00:15;;;;;;;;;16.25;14.75;;;;;18.53;91.66;102074.25;5044900;28;45603;-88
2022/05/08 00:02:41;;;;;;;;;14.25;14.25;;;;;18.52;93.18;102071.59;5039654;28;45320;-88
2022/05/08 00:05:08;;;;;;;;;9.25;7.00;;;;;18.51;93.40;102072.44;5038758;28;45257;-88
2022/05/08 00:07:34;;;;;;;;;15.50;14.50;;;;;18.50;92.84;102083.78;5037339;28;45542;-88
2022/05/08 00:10:00;;;;;;;;;15.75;14.75;;;;;18.50;93.79;102084.69;5018698;28;47760;-86
2022/05/08 00:12:25;;;;;;;;;16.00;14.50;;;;;18.48;93.16;102074.94;5036641;28;45467;-87
2022/05/08 00:14:51;;;;;;;;;13.75;13.75;;;;;18.47;92.75;102075.78;5037100;28;45312;-81
2022/05/08 00:17:18;;;;;;;;;15.50;11.75;;;;;18.49;93.40;102080.28;5021309;28;45375;-82
2022/05/08 00:19:47;;;;;;;;;16.50;13.75;;;;;18.47;93.99;102074.06;5036128;28;46003;-87
2022/05/08 00:22:13;;;;;;;;;16.75;14.75;;;;;18.44;93.94;102079.22;5036375;28;45762;-82
2022/05/08 00:24:39;;;;;;;;;16.75;15.75;;;;;18.42;93.52;102078.28;5037348;28;45343;-81
2022/05/08 00:27:05;;;;;;;;;16.25;13.75;;;;;18.43;93.25;102084.41;5038878;28;45490;-81
2022/05/08 00:29:31;;;;;;;;;16.00;13.25;;;;;18.41;93.63;102066.91;5036422;28;45379;-82
2022/05/08 00:31:57;;;;;;;;;18.25;14.75;;;;;18.36;94.29;102071.09;5036425;28;45399;-86
2022/05/08 00:34:23;;;;;;;;;16.00;14.25;;;;;18.35;93.36;102082.44;5036499;28;45379;-88
2022/05/08 00:36:49;;;;;;;;;16.25;14.00;;;;;18.34;93.72;102085.00;5036191;28;45384;-88
2022/05/08 00:39:18;;;;;;;;;19.00;15.50;;;;;18.30;93.96;102086.63;5035934;28;46164;-87
2022/05/08 00:41:45;;;;;;;;;14.75;13.25;;;;;18.24;94.09;102081.19;5036534;28;45348;-88
2022/05/08 00:44:11;;;;;;;;;14.50;12.75;;;;;18.25;93.68;102083.84;5041360;28;45253;-89
2022/05/08 00:46:37;;;;;;;;;17.00;13.75;;;;;18.22;93.90;102086.38;5044141;28;45165;-87
2022/05/08 00:49:03;;;;;;;;;15.25;14.00;;;;;18.13;95.16;102087.81;5047256;28;45468;-87
2022/05/08 00:51:28;;;;;;;;;11.50;11.50;;;;;18.12;94.38;102093.88;5064221;28;44704;-86
2022/05/08 00:53:58;;;;;;;;;13.75;11.25;;;;;18.07;94.81;102091.97;5057342;28;45371;-88
2022/05/08 00:56:23;;;;;;;;;14.50;12.75;;;;;18.00;96.17;102081.22;5045011;28;45534;-87
2022/05/08 00:58:54;;;;;;;;;13.25;13.25;;;;;17.98;95.77;102083.81;5043032;28;46269;-87
2022/05/08 01:01:20;;;;;;;;;14.00;13.00;;;;;17.95;96.25;102089.81;5043502;28;45304;-88
2022/05/08 01:03:46;;;;;;;;;12.75;12.75;;;;;17.95;96.87;102091.53;5043269;28;45238;-88
2022/05/08 01:06:17;;;;;;;;;16.50;14.25;;;;;17.92;96.20;102089.69;5042362;28;45246;-86
2022/05/08 01:08:50;;;;;;;;;16.50;15.00;;;;;17.92;96.66;102086.19;5043478;28;46177;-86
2022/05/08 01:11:16;;;;;;;;;13.50;12.50;;;;;17.85;97.11;102086.78;5043193;28;45221;-87
2022/05/08 01:13:43;;;;;;;;;12.50;11.75;;;;;17.77;98.45;102090.03;5044283;28;45454;-81
2022/05/08 01:16:11;;;;;;;;;12.75;11.75;;;;;17.79;98.30;102092.72;5043928;28;45482;-88
2022/05/08 01:18:38;;;;;;;;;19.75;15.50;;;;;17.79;98.05;102093.63;5048698;28;45411;-86
2022/05/08 01:21:07;;;;;;;;;15.25;14.00;;;;;17.82;97.64;102086.72;5027602;28;45222;-87
2022/05/08 01:23:33;;;;;;;;;14.75;14.75;;;;;17.79;97.77;102083.13;5042722;28;45351;-88
2022/05/08 01:25:58;;;;;;;;;8.75;7.25;;;;;17.79;98.33;102077.91;5042494;28;45225;-87
2022/05/08 01:28:25;;;;;;;;;19.25;16.75;;;;;17.77;97.60;102082.19;5042328;28;45452;-88
2022/05/08 01:30:53;;;;;;;;;16.50;14.25;;;;;17.76;98.23;102076.91;5042250;28;45889;-87
2022/05/08 01:33:20;;;;;;;;;22.75;16.00;;;;;17.71;99.08;102076.72;5043069;28;45248;-88
2022/05/08 01:35:47;;;;;;;;;18.00;15.75;;;;;17.68;99.70;102071.38;5043106;28;45552;-87
2022/05/08 01:38:14;;;;;;;;;19.50;16.50;;;;;17.65;100.00;102076.50;5042594;28;45769;-85
2022/05/08 01:40:41;;;;;;;;;20.50;19.00;;;;;17.60;99.17;102072.84;5025795;28;45305;-86
2022/05/08 01:43:07;;;;;;;;;16.50;15.50;;;;;17.59;99.62;102076.28;5048749;28;45725;-88
2022/05/08 01:45:33;;;;;;;;;19.25;17.25;;;;;17.56;100.00;102074.44;5048102;28;45348;-86
2022/05/08 01:50:44;;;;;;;;;18.50;16.50;;;;;17.46;100.00;102068.00;5045594;28;45332;-84
2022/05/08 01:53:10;;;;;;;;;19.00;16.50;;;;;17.47;100.00;102068.88;5052558;28;45284;-83
2022/05/08 01:55:36;;;;;;;;;20.00;18.75;;;;;17.43;100.00;102072.22;5050162;28;45385;-83
2022/05/08 01:58:02;;;;;;;;;19.00;16.00;;;;;17.42;100.00;102078.28;5049514;28;46269;-84
2022/05/08 02:00:29;;;;;;;;;20.00;18.00;;;;;17.42;100.00;102073.06;5047818;28;45750;-85
2022/05/08 02:02:58;;;;;;;;;20.25;17.50;;;;;17.38;100.00;102074.69;5048457;28;45529;-86
2022/05/08 02:05:24;;;;;;;;;23.00;21.50;;;;;17.34;100.00;102083.25;5040080;28;45317;-86
2022/05/08 02:07:50;;;;;;;;;23.75;21.00;;;;;17.32;100.00;102071.81;5039227;28;45404;-86
2022/05/08 02:10:17;;;;;;;;;19.50;17.25;;;;;17.35;100.00;102081.50;5042991;28;45311;-85
2022/05/08 02:12:44;;;;;;;;;28.25;24.00;;;;;17.34;100.00;102078.00;5040848;28;45269;-86
2022/05/08 02:15:12;;;;;;;;;23.75;20.00;;;;;17.34;100.00;102083.25;5040123;28;45403;-87
2022/05/08 02:17:39;;;;;;;;;21.25;19.00;;;;;17.31;100.00;102078.78;5039199;28;45364;-87
2022/05/08 02:20:07;;;;;;;;;25.25;20.50;;;;;17.32;100.00;102084.91;5038003;28;45807;-87
2022/05/08 02:22:33;;;;;;;;;25.00;22.25;;;;;17.27;100.00;102076.00;5038393;28;45241;-88
2022/05/08 02:25:00;;;;;;;;;24.50;22.75;;;;;17.26;100.00;102079.44;5020558;28;45426;-87
2022/05/08 02:27:25;;;;;;;;;27.50;23.00;;;;;17.26;100.00;102079.44;5020254;28;47726;-87
2022/05/08 02:29:52;;;;;;;;;26.25;23.50;;;;;17.22;100.00;102085.38;5038398;28;45520;-88
2022/05/08 02:32:18;;;;;;;;;21.00;19.50;;;;;17.20;100.00;102087.06;5038757;28;45285;-87
2022/05/08 02:34:45;;;;;;;;;24.75;20.50;;;;;17.18;100.00;102087.88;5038679;28;45665;-87
2022/05/08 02:37:11;;;;;;;;;21.00;18.00;;;;;17.15;100.00;102085.19;5046419;28;45547;-81
2022/05/08 02:39:37;;;;;;;;;27.50;24.75;;;;;17.07;100.00;102085.69;5040296;28;45228;-86
2022/05/08 02:42:03;;;;;;;;;29.25;24.00;;;;;17.00;100.00;102092.41;5038072;28;45296;-87
2022/05/08 02:44:29;;;;;;;;;25.75;20.25;;;;;16.85;100.00;102090.94;5038270;28;45503;-87
2022/05/08 02:46:54;;;;;;;;;33.25;24.25;;;;;16.79;100.00;102089.84;5037414;28;46003;-88
2022/05/08 02:49:20;;;;;;;;;29.50;26.25;;;;;16.69;100.00;102097.28;5019980;28;45365;-87
2022/05/08 02:51:46;;;;;;;;;26.25;25.25;;;;;16.64;100.00;102101.44;5037849;28;45490;-87
2022/05/08 02:54:12;;;;;;;;;28.50;27.75;;;;;16.60;100.00;102102.16;5038230;28;45359;-81
2022/05/08 02:59:22;;;;;;;;;35.25;29.50;;;;;16.46;100.00;102100.72;5037766;28;46025;-87
2022/05/08 03:01:47;;;;;;;;;33.75;26.75;;;;;16.45;100.00;102102.41;5040074;28;45367;-87
2022/05/08 03:04:13;;;;;;;;;33.50;29.75;;;;;16.37;100.00;102099.47;5045428;28;45617;-87
2022/05/08 03:06:39;;;;;;;;;38.50;33.25;;;;;16.36;100.00;102105.53;5038420;28;46138;-87
2022/05/08 03:09:04;;;;;;;;;41.75;34.50;;;;;16.30;100.00;102107.03;5037305;28;45290;-87
2022/05/08 03:11:32;;;;;;;;;37.25;32.50;;;;;16.26;100.00;102103.34;5037685;28;45421;-86
2022/05/08 03:13:58;;;;;;;;;35.50;31.25;;;;;16.27;100.00;102107.75;5037472;28;45329;-86
2022/05/08 03:16:25;;;;;;;;;38.75;33.50;;;;;16.29;100.00;102106.09;5037330;28;45468;-86
2022/05/08 03:18:51;;;;;;;;;40.75;33.75;;;;;16.26;100.00;102105.97;5037034;28;45922;-86
2022/05/08 03:21:17;;;;;;;;;37.00;34.25;;;;;16.28;100.00;102106.06;5037787;28;45393;-86
2022/05/08 03:23:45;;;;;;;;;40.50;34.75;;;;;16.31;100.00;102107.06;5037830;28;45537;-86
2022/05/08 03:26:13;;;;;;;;;37.50;33.00;;;;;16.34;100.00;102101.97;5038053;28;46266;-87
2022/05/08 03:28:39;;;;;;;;;41.00;36.00;;;;;16.27;100.00;102099.91;5042929;28;45186;-87
2022/05/08 03:31:05;;;;;;;;;39.00;35.00;;;;;16.32;100.00;102101.03;5047571;28;45292;-83
2022/05/08 03:33:33;;;;;;;;;35.50;33.50;;;;;16.36;100.00;102104.66;5038740;28;45536;-86
2022/05/08 03:35:59;;;;;;;;;42.00;34.50;;;;;16.42;100.00;102106.63;5037020;28;46155;-86
2022/05/08 03:38:27;;;;;;;;;36.75;32.00;;;;;16.48;100.00;102107.78;5037078;28;45384;-86
2022/05/08 03:40:54;;;;;;;;;42.25;36.25;;;;;16.50;100.00;102111.34;5037319;28;45212;-87
2022/05/08 03:43:20;;;;;;;;;40.00;35.50;;;;;16.51;100.00;102105.31;5038300;28;45324;-86
2022/05/08 03:45:48;;;;;;;;;40.75;35.50;;;;;16.54;100.00;102107.13;5036702;28;46414;-85
2022/05/08 03:48:15;;;;;;;;;44.75;38.00;;;;;16.48;100.00;102107.78;5037028;28;45307;-83
2022/05/08 03:50:41;;;;;;;;;44.25;37.75;;;;;16.49;100.00;102109.56;5037490;28;45333;-85
2022/05/08 03:53:07;;;;;;;;;41.25;35.50;;;;;16.52;100.00;102106.19;5041505;28;45242;-86
2022/05/08 03:55:32;;;;;;;;;39.00;35.25;;;;;16.53;100.00;102110.59;5040449;28;45440;-85
2022/05/08 03:57:58;;;;;;;;;45.50;36.75;;;;;16.49;100.00;102108.66;5043895;28;45328;-83
2022/05/08 04:00:24;;;;;;;;;49.50;41.25;;;;;16.44;100.00;102112.81;5048874;28;45267;-83
2022/05/08 04:02:49;;;;;;;;;45.25;36.00;;;;;16.39;100.00;102104.78;5043710;28;45333;-86
2022/05/08 04:05:15;;;;;;;;;50.33;38.33;;;;;16.37;100.00;102112.53;5040397;28;46134;-86
2022/05/08 04:07:41;;;;;;;;;48.25;39.00;;;;;16.35;100.00;102108.09;5043040;28;45367;-86
2022/05/08 04:10:08;;;;;;;;;50.75;39.00;;;;;16.35;100.00;102111.63;5042228;28;45293;-87
2022/05/08 04:12:35;;;;;;;;;46.75;36.50;;;;;16.32;100.00;102111.47;5038413;28;45572;-86
2022/05/08 04:15:00;;;;;;;;;52.25;42.00;;;;;16.34;100.00;102109.81;5021104;28;46972;-87
2022/05/08 04:17:28;;;;;;;;;47.00;37.00;;;;;16.31;100.00;102112.28;5036750;28;45360;-87
2022/05/08 04:19:57;;;;;;;;;44.00;36.25;;;;;16.31;100.00;102112.28;5036207;28;45231;-87
2022/05/08 04:25:08;;;;;;;;;43.50;36.25;;;;;16.40;100.00;102109.19;5041079;28;45641;-87
2022/05/08 04:27:35;;;;;;;;;49.25;39.00;;;;;16.50;100.00;102115.66;5036391;28;45327;-84
2022/05/08 04:30:01;;;;;;;;;51.25;39.50;;;;;16.54;100.00;102118.47;5036227;28;45514;-85
2022/05/08 04:32:27;;;;;;;;;50.00;40.00;;;;;16.56;100.00;102115.94;5036180;28;45521;-85
2022/05/08 04:34:52;;;;;;;;;50.25;41.50;;;;;16.59;100.00;102116.03;5035525;28;45492;-86
2022/05/08 04:37:18;;;;;;;;;47.00;37.00;;;;;16.63;100.00;102120.59;5035807;28;45237;-86
2022/05/08 04:39:44;;;;;;;;;50.50;42.00;;;;;16.67;100.00;102114.66;5035647;28;45243;-83
2022/05/08 04:42:09;;;;;;;;;47.75;37.00;;;;;16.68;100.00;102116.41;5036265;28;45434;-81
2022/05/08 04:44:35;;;;;;;;;49.25;40.75;;;;;16.72;100.00;102120.06;5035614;28;45959;-82
2022/05/08 04:47:00;;;;;;;;;48.50;40.50;;;;;16.77;100.00;102126.38;5035344;28;45365;-82
2022/05/08 04:49:27;;;;;;;;;49.75;38.25;;;;;16.80;100.00;102128.22;5037483;28;46065;-81
2022/05/08 04:51:53;;;;;;;;;51.50;41.25;;;;;16.81;100.00;102127.38;5036347;28;45494;-81
2022/05/08 04:54:19;;;;;;;;;46.75;39.50;;;;;16.82;100.00;102129.16;5035676;28;46533;-82
2022/05/08 04:56:44;;;;;;;;;46.75;40.50;;;;;16.82;100.00;102130.06;5035273;28;45335;-80
2022/05/08 04:59:10;;;;;;;;;48.50;40.50;;;;;16.84;100.00;102132.75;5018132;28;45296;-82
2022/05/08 05:01:36;;;;;;;;;50.50;40.50;;;;;16.74;100.00;102143.66;5018004;28;45572;-83
2022/05/08 05:04:01;;;;;;;;;49.00;40.50;;;;;16.62;100.00;102141.44;5035449;28;45341;-82
2022/05/08 05:06:27;;;;;;;;;47.00;37.50;;;;;16.63;100.00;102148.47;5035429;28;45231;-81
2022/05/08 05:08:53;;;;;;;;;53.75;40.00;;;;;16.62;100.00;102146.69;5035572;28;45355;-82
2022/05/08 05:11:19;;;;;;;;;53.00;41.75;;;;;16.62;100.00;102147.56;5017914;28;45388;-85
2022/05/08 05:13:44;;;;;;;;;51.00;41.00;;;;;16.52;100.00;102148.00;5036069;28;46235;-84
2022/05/08 05:16:10;;;;;;;;;48.75;39.25;;;;;16.43;100.00;102147.63;5041000;28;45364;-85
2022/05/08 05:18:36;;;;;;;;;49.00;40.00;;;;;16.38;100.00;102153.53;5038401;28;45377;-84
2022/05/08 05:21:01;;;;;;;;;52.25;41.75;;;;;16.32;100.00;102160.22;5036219;28;46069;-86
2022/05/08 05:23:27;;;;;;;;;50.25;39.75;;;;;16.24;100.00;102157.31;5035362;28;45323;-85
2022/05/08 05:25:52;;;;;;;;;48.75;39.50;;;;;16.21;100.00;102165.00;5034947;28;45415;-86
2022/05/08 05:28:18;;;;;;;;;50.00;40.50;;;;;16.25;100.00;102166.94;5017556;28;45383;-85
2022/05/08 05:30:44;;;;;;;;;54.50;41.25;;;;;16.31;100.00;102177.63;5037876;28;45655;-85
2022/05/08 05:33:15;;;;;;;;;48.50;40.00;;;;;16.26;100.00;102171.31;5039159;28;46054;-86
2022/05/08 05:35:42;;;;;;;;;53.50;41.25;;;;;16.27;100.00;102177.44;5039422;28;46068;-85
2022/05/08 05:38:08;;;;;;;;;54.25;40.50;;;;;16.23;100.00;102174.69;5039385;28;45304;-85
2022/05/08 05:40:34;;;;;;;;;50.25;40.75;;;;;16.18;100.00;102173.59;5040202;28;45356;-85
2022/05/08 05:42:59;;;;;;;;;50.00;40.25;;;;;16.21;100.00;102183.28;5044656;28;45477;-85
2022/05/08 05:45:26;;;;;;;;;54.50;41.00;;;;;16.18;100.00;102181.44;5039625;28;45186;-86
2022/05/08 05:47:54;;;;;;;;;53.75;42.75;;;;;16.15;100.00;102183.91;5038895;28;45328;-85
2022/05/08 05:50:21;;;;;;;;;53.25;40.50;;;;;16.17;100.00;102189.19;5041570;28;45375;-84
2022/05/08 05:52:48;;;;;;;;;50.25;39.50;;;;;16.15;100.00;102185.63;5021008;28;46481;-85
2022/05/08 05:55:13;;;;;;;;;47.00;39.75;;;;;16.16;100.00;102192.63;5038587;28;45496;-84
2022/05/08 05:57:39;;;;;;;;;54.75;41.75;;;;;16.15;100.00;102193.47;5039202;28;45353;-87
2022/05/08 06:00:09;;;;;;;;;48.75;39.00;;;;;16.17;100.00;102192.72;5038539;28;45305;-86
2022/05/08 06:02:35;;;;;;;;;51.50;40.00;;;;;16.22;100.00;102198.16;5038570;28;46175;-87
2022/05/08 06:05:00;;;;;;;;;50.50;42.00;;;;;16.23;100.00;102197.31;5038726;28;45420;-87
2022/05/08 06:07:26;;;;;;;;;53.50;41.50;;;;;16.28;100.00;102203.63;5049877;28;45284;-87
2022/05/08 06:09:52;;;;;;;;;49.50;40.25;;;;;16.30;100.00;102199.38;5047572;28;45274;-87
2022/05/08 06:12:18;;;;;;;;;50.75;40.75;;;;;16.32;100.00;102204.66;5046125;28;45324;-88
2022/05/08 06:14:46;;;;;;;;;46.25;38.50;;;;;16.34;100.00;102203.00;5041121;28;45426;-86
2022/05/08 06:17:13;;;;;;;;;47.25;37.75;;;;;16.33;100.00;102204.75;5049118;28;44757;-80
2022/05/08 06:19:38;;;;;;;;;50.50;40.50;;;;;16.38;100.00;102204.94;5042903;28;45460;-87
2022/05/08 06:22:04;;;;;;;;;52.75;41.50;;;;;16.37;100.00;102209.25;5039695;28;46151;-87
2022/05/08 06:24:30;;;;;;;;;49.75;39.00;;;;;16.37;100.00;102209.25;5039147;28;45466;-87
2022/05/08 06:26:56;;;;;;;;;52.00;40.25;;;;;16.39;100.00;102206.72;5039247;28;45498;-87
2022/05/08 06:29:23;;;;;;;;;50.50;41.75;;;;;16.36;100.00;102206.59;5040099;28;45418;-86
2022/05/08 06:31:51;;;;;;;;;46.75;38.50;;;;;16.33;100.00;102209.97;5020808;28;47007;-88
2022/05/08 06:34:20;;;;;;;;;48.25;36.00;;;;;16.34;100.00;102206.53;5038747;28;45296;-88
2022/05/08 06:36:46;;;;;;;;;47.25;39.50;;;;;16.36;100.00;102212.69;5039582;28;45352;-88
2022/05/08 06:39:13;;;;;;;;;57.75;45.00;;;;;16.35;100.00;102210.03;5043186;28;45563;-80
2022/05/08 06:41:39;;;;;;;;;44.75;37.75;;;;;16.36;100.00;102215.31;5038750;28;46075;-88
2022/05/08 06:44:05;;;;;;;;;49.25;39.00;;;;;16.39;100.00;102210.22;5038374;28;45852;-88
2022/05/08 06:46:32;;;;;;;;;45.50;37.75;;;;;16.47;100.00;102214.88;5038218;28;45230;-87
2022/05/08 06:48:58;;;;;;;;;48.50;39.50;;;;;16.53;100.00;102215.16;5038953;28;45368;-88
2022/05/08 06:51:24;;;;;;;;;49.50;40.00;;;;;16.58;100.00;102208.38;5020410;28;45738;-84
2022/05/08 06:53:49;;;;;;;;;47.50;40.25;;;;;16.52;100.00;102214.25;5024222;28;45446;-86
2022/05/08 06:56:16;;;;;;;;;48.50;39.25;;;;;16.51;100.00;102219.41;5038395;28;45241;-86
2022/05/08 07:01:35;;;;;;;;;49.50;39.75;;;;;16.53;100.00;102223.00;5041103;28;45337;-88
2022/05/08 07:04:03;;;;;;;;;50.00;39.25;;;;;16.55;100.00;102222.22;5045066;28;45503;-88
2022/05/08 07:06:29;;;;;;;;;49.25;40.25;;;;;16.51;100.00;102222.94;5048215;28;45399;-87
2022/05/08 07:08:55;;;;;;;;;50.50;41.25;;;;;16.47;100.00;102231.47;5046627;28;45218;-86
2022/05/08 07:11:21;;;;;;;;;44.75;38.00;;;;;16.46;100.00;102229.69;5039518;28;45376;-87
2022/05/08 07:13:47;;;;;;;;;47.00;38.50;;;;;16.48;100.00;102230.66;5038797;28;45427;-87
2022/05/08 07:16:13;;;;;;;;;44.50;37.00;;;;;16.54;100.00;102230.91;5039163;28;45269;-86
2022/05/08 07:18:39;;;;;;;;;48.75;38.25;;;;;16.59;100.00;102227.59;5038668;28;45360;-86
2022/05/08 07:21:05;;;;;;;;;53.50;42.25;;;;;16.63;100.00;102238.25;5038388;28;45722;-85
2022/05/08 07:23:32;;;;;;;;;53.00;39.75;;;;;16.64;100.00;102237.44;5038220;28;46159;-84
2022/05/08 07:25:58;;;;;;;;;52.25;40.25;;;;;16.61;100.00;102239.03;5038755;28;45419;-87
2022/05/08 07:28:24;;;;;;;;;50.00;39.50;;;;;16.60;100.00;102232.00;5021185;28;45536;-88
2022/05/08 07:30:50;;;;;;;;;45.75;35.75;;;;;16.51;100.00;102237.72;5048182;28;45333;-84
2022/05/08 07:33:16;;;;;;;;;47.50;38.50;;;;;16.46;100.00;102237.53;5046535;28;45240;-85
2022/05/08 07:38:30;;;;;;;;;47.00;38.25;;;;;16.52;100.00;102248.22;5040928;28;45266;-86
2022/05/08 07:40:57;;;;;;;;;49.75;39.75;;;;;16.56;100.00;102250.16;5040142;28;46547;-87
2022/05/08 07:43:23;;;;;;;;;55.50;43.50;;;;;16.59;100.00;102251.13;5039398;28;45470;-87
2022/05/08 07:45:49;;;;;;;;;46.00;36.25;;;;;16.58;100.00;102254.56;5018627;28;45387;-87
2022/05/08 07:48:16;;;;;;;;;52.75;42.25;;;;;16.55;100.00;102261.44;5044255;28;45253;-86
2022/05/08 07:50:42;;;;;;;;;46.25;39.50;;;;;16.53;100.00;102252.63;5036490;28;46483;-83
2022/05/08 07:53:08;;;;;;;;;45.75;37.75;;;;;16.54;100.00;102261.41;5017583;28;45778;-86
2022/05/08 07:55:34;;;;;;;;;48.50;39.75;;;;;16.55;100.00;102253.59;5037698;28;45352;-86
2022/05/08 07:58:00;;;;;;;;;45.25;38.25;;;;;16.69;100.00;102261.16;5042131;28;45494;-86
2022/05/08 08:00:25;;;;;;;;;48.75;37.50;;;;;16.75;100.00;102256.19;5022195;28;47621;-83
2022/05/08 08:02:51;;;;;;;;;55.25;42.50;;;;;16.83;100.00;102262.66;5037170;28;45405;-86
2022/05/08 08:05:17;;;;;;;;;53.00;42.50;;;;;16.90;100.00;102266.41;5037327;28;45411;-88
2022/05/08 08:07:42;;;;;;;;;50.25;38.75;;;;;16.92;100.00;102272.59;5036972;28;45645;-86
2022/05/08 08:10:08;;;;;;;;;48.00;39.75;;;;;16.98;100.00;102261.53;5037371;28;45387;-88
2022/05/08 08:12:35;;;;;;;;;51.75;39.50;;;;;16.98;100.00;102265.06;5037353;28;45233;-86
2022/05/08 08:15:02;;;;;;;;;51.25;39.50;;;;;17.05;100.00;102275.75;5037597;28;45364;-86
2022/05/08 08:17:28;;;;;;;;;45.75;38.50;;;;;17.01;100.00;102264.28;5018932;28;45267;-87
2022/05/08 08:19:54;;;;;;;;;45.75;38.25;;;;;16.98;100.00;102258.91;5035917;28;46480;-88
2022/05/08 08:22:21;;;;;;;;;45.25;37.00;;;;;16.96;100.00;102268.41;5038082;28;45409;-87
2022/05/08 08:24:48;;;;;;;;;52.75;41.00;;;;;16.89;100.00;102251.56;5022701;28;45370;-87
2022/05/08 08:27:16;;;;;;;;;52.75;42.00;;;;;17.04;100.00;102260.88;5037539;28;45377;-87
2022/05/08 08:29:41;;;;;;;;;45.25;35.00;;;;;17.09;100.00;102256.75;5037469;28;45396;-80
2022/05/08 08:32:07;;;;;;;;;49.25;40.00;;;;;17.10;100.00;102262.03;5037700;28;45412;-87
2022/05/08 08:34:33;;;;;;;;;52.25;39.50;;;;;17.12;100.00;102252.53;5019114;28;45293;-87
2022/05/08 08:36:59;;;;;;;;;45.75;39.50;;;;;17.23;100.00;102259.94;5036984;28;45270;-87
2022/05/08 08:39:24;;;;;;;;;49.50;39.50;;;;;17.29;100.00;102258.44;5036458;28;45951;-87
2022/05/08 08:42:07;;;;;;;;;48.25;38.00;;;;;17.34;100.00;102266.50;5034296;28;45459;-86
2022/05/08 08:50:08;;;;;;;;;50.25;39.75;;;;;17.43;100.00;102272.09;5041269;28;45360;-87
2022/05/08 08:52:35;;;;;;;;;50.50;39.75;;;;;17.41;100.00;102268.50;5043002;28;45194;-86
2022/05/08 08:55:01;;;;;;;;;50.00;39.50;;;;;17.39;100.00;102264.94;5037051;28;45349;-85
2022/05/08 08:57:26;;;;;;;;;44.75;39.25;;;;;17.40;100.00;102260.59;5036522;28;45166;-87
2022/05/08 08:59:52;;;;;;;;;52.50;41.00;;;;;17.41;100.00;102257.16;5036490;28;46318;-85
2022/05/08 09:02:20;;;;;;;;;51.25;40.75;;;;;17.50;100.00;102268.00;5036147;28;45256;-87
2022/05/08 09:04:46;;;;;;;;;54.00;42.50;;;;;17.52;100.00;102268.94;5019074;28;45391;-86
2022/05/08 09:07:33;;;;;;;;;52.25;40.75;;;;;17.49;100.00;102263.59;5039672;28;45348;-85
2022/05/08 09:10:16;;;;;;;;;53.75;38.25;;;;;17.47;100.00;102267.88;5039246;28;45364;-86
2022/05/08 09:12:44;;;;;;;;;48.75;39.00;;;;;17.41;100.00;102263.28;5021443;28;45479;-85
2022/05/08 09:15:24;;;;;;;;;52.00;40.75;;;;;17.49;100.00;102267.09;5043504;28;45498;-86
2022/05/08 09:18:07;;;;;;;;;51.00;39.50;;;;;17.58;100.00;102263.06;5026694;28;45467;-85
2022/05/08 09:20:37;;;;;;;;;51.25;39.75;;;;;17.58;100.00;102263.06;5040754;28;45661;-85
2022/05/08 09:23:06;;;;;;;;;48.00;35.75;;;;;17.58;100.00;102257.84;5040154;28;45420;-85
2022/05/08 09:25:49;;;;;;;;;53.00;42.75;;;;;17.63;100.00;102265.03;5040084;28;45210;-86
2022/05/08 09:28:26;;;;;;;;;47.25;35.25;;;;;17.70;100.00;102270.50;5039233;28;45474;-86
2022/05/08 09:31:14;;;;;;;;;48.75;39.75;;;;;17.76;100.00;102266.41;5038757;28;45266;-88
2022/05/08 09:33:41;;;;;;;;;47.75;39.25;;;;;17.78;100.00;102263.81;5039640;28;45367;-87
2022/05/08 09:36:09;;;;;;;;;50.00;37.75;;;;;17.85;100.00;102270.19;5040576;28;45485;-86
2022/05/08 09:38:41;;;;;;;;;49.50;39.25;;;;;17.88;100.00;102268.56;5023540;28;45667;-86
2022/05/08 09:41:08;;;;;;;;;51.25;40.00;;;;;17.95;100.00;102264.47;5043676;28;46116;-87
2022/05/08 09:43:37;;;;;;;;;55.00;43.25;;;;;17.99;100.00;102266.41;5052994;28;45390;-85
2022/05/08 09:46:04;;;;;;;;;49.25;38.50;;;;;18.11;100.00;102265.97;5045394;28;45226;-87
2022/05/08 09:48:35;;;;;;;;;49.50;40.50;;;;;18.14;100.00;102267.81;5022861;28;45347;-85
2022/05/08 09:51:06;;;;;;;;;46.75;38.00;;;;;18.27;100.00;102263.91;5039011;28;45467;-87
2022/05/08 09:53:33;;;;;;;;;50.25;39.75;;;;;18.42;100.00;102259.22;5039119;28;45399;-85
2022/05/08 09:56:02;;;;;;;;;52.50;44.00;;;;;18.56;100.00;102262.34;5038229;28;45422;-86
2022/05/08 09:58:28;;;;;;;;;49.00;37.50;;;;;18.62;100.00;102259.91;5038590;28;45455;-86
2022/05/08 10:00:57;;;;;;;;;47.75;37.50;;;;;18.67;100.00;102265.31;5020077;28;46275;-85
2022/05/08 10:03:24;;;;;;;;;53.50;42.50;;;;;18.73;100.00;102257.69;5037859;28;46081;-86
2022/05/08 10:05:53;;;;;;;;;52.50;42.25;;;;;18.86;100.00;102249.38;5037742;28;45427;-85
2022/05/08 10:08:21;;;;;;;;;52.75;41.75;;;;;18.91;99.30;102248.63;5044876;28;45508;-85
2022/05/08 10:16:49;;;;;;;;;51.50;40.25;;;;;19.15;97.07;102252.13;5039737;28;45454;-87
2022/05/08 10:19:21;;;;;;;;;49.75;38.25;;;;;19.25;96.31;102249.78;5038917;28;45494;-85
2022/05/08 10:21:56;;;;;;;;;48.50;41.00;;;;;19.28;95.02;102247.22;5038565;28;45996;-85
2022/05/08 10:24:54;;;;;;;;;53.50;42.25;;;;;19.28;94.85;102248.13;5037707;28;45447;-88
2022/05/08 10:27:25;;;;;;;;;51.25;41.25;;;;;19.29;94.81;102246.41;5037780;28;45319;-85
2022/05/08 10:29:54;;;;;;;;;52.50;41.25;;;;;19.34;94.97;102247.44;5038024;28;45903;-88
2022/05/08 10:32:35;;;;;;;;;56.75;43.50;;;;;19.42;93.32;102239.81;5020061;28;46842;-84
2022/05/08 10:35:03;;;;;;;;;53.00;41.25;;;;;19.43;92.54;102242.47;5042016;28;45828;-86
2022/05/08 10:37:30;;;;;;;;;53.25;42.75;;;;;19.47;92.29;102241.75;5040312;28;45510;-87
2022/05/08 10:39:56;;;;;;;;;49.50;40.00;;;;;19.53;92.76;102235.78;5051298;28;45232;-86
2022/05/08 10:42:22;;;;;;;;;47.25;38.00;;;;;19.56;91.64;102235.84;5039247;28;45398;-85
2022/05/08 10:44:47;;;;;;;;;53.00;42.25;;;;;19.51;91.42;102233.94;5038174;28;45241;-87
2022/05/08 10:47:32;;;;;;;;;48.75;38.75;;;;;19.49;91.83;102228.63;5039241;28;45304;-89
2022/05/08 10:49:58;;;;;;;;;54.25;41.25;;;;;19.51;92.15;102236.56;5041040;28;45244;-84
2022/05/08 10:52:24;;;;;;;;;45.25;37.75;;;;;19.46;91.80;102231.16;5039897;28;46332;-87
2022/05/08 10:54:56;;;;;;;;;51.25;39.00;;;;;19.49;91.36;102228.63;5037473;28;45368;-82
2022/05/08 10:57:31;;;;;;;;;55.75;43.25;;;;;19.59;91.91;102235.97;5037971;28;45398;-85
2022/05/08 10:59:56;;;;;;;;;49.00;40.50;;;;;19.66;90.31;102237.03;5038952;28;45477;-83
2022/05/08 11:02:43;;;;;;;;;53.00;42.25;;;;;19.72;90.19;102228.44;5040324;28;45888;-87
2022/05/08 11:05:11;;;;;;;;;47.50;36.50;;;;;19.73;89.85;102225.84;5042737;28;45277;-85
2022/05/08 11:07:39;;;;;;;;;55.25;44.00;;;;;19.72;89.79;102226.69;5039605;28;45297;-84
2022/05/08 11:10:15;;;;;;;;;52.75;43.00;;;;;19.82;90.00;102226.97;5037672;28;45480;-88
2022/05/08 11:13:00;;;;;;;;;51.50;42.00;;;;;19.99;89.20;102230.13;5037964;28;46463;-88
2022/05/08 11:15:33;;;;;;;;;44.50;36.75;;;;;20.09;87.05;102219.91;5037419;28;45322;-89
2022/05/08 11:18:09;;;;;;;;;45.50;36.75;;;;;20.19;86.82;102222.81;5038012;28;45443;-88
2022/05/08 11:21:02;;;;;;;;;51.75;40.50;;;;;20.33;87.41;102217.91;5020115;28;45228;-87
2022/05/08 11:23:29;;;;;;;;;53.00;41.75;;;;;20.51;86.16;102220.16;5037599;28;45400;-86
2022/05/08 11:25:58;;;;;;;;;51.50;40.75;;;;;20.61;85.99;102208.13;5037628;28;45956;-87
2022/05/08 11:28:24;;;;;;;;;52.50;39.75;;;;;20.64;84.16;102209.09;5039145;28;45331;-87
2022/05/08 11:30:51;;;;;;;;;45.25;36.25;;;;;20.49;83.48;102217.47;5036951;28;45413;-86